sensor_id;sensor_type;location;lat;lon;timestamp;temperature;humidity
52209;DHT22;38507;53.132;6.394;2024-02-04T00:00:29;6.50;99.90
52209;DHT22;38507;53.132;6.394;2024-02-04T00:02:54;6.50;99.90
52209;DHT22;38507;53.132;6.394;2024-02-04T00:05:20;7.60;99.90
52209;DHT22;38507;53.132;6.394;2024-02-04T00:07:46;6.40;99.90
52209;DHT22;38507;53.132;6.394;2024-02-04T00:10:12;6.40;99.90
52209;DHT22;38507;53.132;6.394;2024-02-04T00:12:38;7.20;99.90
52209;DHT22;38507;53.132;6.394;2024-02-04T00:15:05;6.40;99.90
52209;DHT22;38507;53.132;6.394;2024-02-04T00:17:31;6.40;99.90
52209;DHT22;38507;53.132;6.394;2024-02-04T00:19:59;6.30;99.90
52209;DHT22;38507;53.132;6.394;2024-02-04T00:22:25;6.30;99.90
52209;DHT22;38507;53.132;6.394;2024-02-04T00:24:50;6.20;99.90
52209;DHT22;38507;53.132;6.394;2024-02-04T00:27:16;7.20;99.90
52209;DHT22;38507;53.132;6.394;2024-02-04T00:29:41;6.30;99.90
52209;DHT22;38507;53.132;6.394;2024-02-04T00:32:07;7.00;99.90
52209;DHT22;38507;53.132;6.394;2024-02-04T00:34:33;7.20;99.90
52209;DHT22;38507;53.132;6.394;2024-02-04T00:36:58;6.10;99.90
52209;DHT22;38507;53.132;6.394;2024-02-04T00:39:25;6.10;99.90
52209;DHT22;38507;53.132;6.394;2024-02-04T00:41:51;6.10;99.90
52209;DHT22;38507;53.132;6.394;2024-02-04T00:44:17;6.50;99.90
52209;DHT22;38507;53.132;6.394;2024-02-04T00:46:43;7.10;99.90
52209;DHT22;38507;53.132;6.394;2024-02-04T00:49:09;6.10;99.90
52209;DHT22;38507;53.132;6.394;2024-02-04T00:51:34;7.00;99.90
52209;DHT22;38507;53.132;6.394;2024-02-04T00:54:00;6.70;99.90
52209;DHT22;38507;53.132;6.394;2024-02-04T00:56:26;6.00;99.90
52209;DHT22;38507;53.132;6.394;2024-02-04T00:58:51;6.00;99.90
52209;DHT22;38507;53.132;6.394;2024-02-04T01:01:17;7.00;99.90
52209;DHT22;38507;53.132;6.394;2024-02-04T01:03:44;6.00;99.90
52209;DHT22;38507;53.132;6.394;2024-02-04T01:06:10;6.80;99.90
52209;DHT22;38507;53.132;6.394;2024-02-04T01:08:36;6.00;99.90
52209;DHT22;38507;53.132;6.394;2024-02-04T01:11:04;6.60;99.90
52209;DHT22;38507;53.132;6.394;2024-02-04T01:13:30;5.90;99.90
52209;DHT22;38507;53.132;6.394;2024-02-04T01:15:56;5.90;99.90
52209;DHT22;38507;53.132;6.394;2024-02-04T01:18:21;7.10;99.90
52209;DHT22;38507;53.132;6.394;2024-02-04T01:20:47;6.80;99.90
52209;DHT22;38507;53.132;6.394;2024-02-04T01:23:13;7.00;99.90
52209;DHT22;38507;53.132;6.394;2024-02-04T01:25:38;5.90;99.90
52209;DHT22;38507;53.132;6.394;2024-02-04T01:28:04;5.90;99.90
52209;DHT22;38507;53.132;6.394;2024-02-04T01:30:30;5.90;99.90
52209;DHT22;38507;53.132;6.394;2024-02-04T01:32:56;5.80;99.90
52209;DHT22;38507;53.132;6.394;2024-02-04T01:35:22;6.20;99.90
52209;DHT22;38507;53.132;6.394;2024-02-04T01:37:48;5.80;99.90
52209;DHT22;38507;53.132;6.394;2024-02-04T01:40:14;5.90;99.90
52209;DHT22;38507;53.132;6.394;2024-02-04T01:42:40;5.70;99.90
52209;DHT22;38507;53.132;6.394;2024-02-04T01:45:06;6.80;99.90
52209;DHT22;38507;53.132;6.394;2024-02-04T01:47:33;5.70;99.90
52209;DHT22;38507;53.132;6.394;2024-02-04T01:49:59;5.70;99.90
52209;DHT22;38507;53.132;6.394;2024-02-04T01:52:26;5.70;99.90
52209;DHT22;38507;53.132;6.394;2024-02-04T01:54:52;5.70;99.90
52209;DHT22;38507;53.132;6.394;2024-02-04T01:57:18;6.10;99.90
52209;DHT22;38507;53.132;6.394;2024-02-04T01:59:45;6.70;99.90
52209;DHT22;38507;53.132;6.394;2024-02-04T02:02:12;5.90;99.90
52209;DHT22;38507;53.132;6.394;2024-02-04T02:04:38;5.60;99.90
52209;DHT22;38507;53.132;6.394;2024-02-04T02:07:04;6.70;99.90
52209;DHT22;38507;53.132;6.394;2024-02-04T02:09:33;5.60;99.90
52209;DHT22;38507;53.132;6.394;2024-02-04T02:12:11;5.60;99.90
52209;DHT22;38507;53.132;6.394;2024-02-04T02:14:52;6.80;99.90
52209;DHT22;38507;53.132;6.394;2024-02-04T02:17:27;6.70;99.90
52209;DHT22;38507;53.132;6.394;2024-02-04T02:20:12;5.60;99.90
52209;DHT22;38507;53.132;6.394;2024-02-04T02:23:12;5.60;99.90
52209;DHT22;38507;53.132;6.394;2024-02-04T02:25:40;5.60;99.90
52209;DHT22;38507;53.132;6.394;2024-02-04T02:28:07;5.50;99.90
52209;DHT22;38507;53.132;6.394;2024-02-04T02:30:32;6.60;99.90
52209;DHT22;38507;53.132;6.394;2024-02-04T02:32:58;6.60;99.90
52209;DHT22;38507;53.132;6.394;2024-02-04T02:35:25;5.50;99.90
52209;DHT22;38507;53.132;6.394;2024-02-04T02:43:10;6.30;99.90
52209;DHT22;38507;53.132;6.394;2024-02-04T02:45:41;5.50;99.90
52209;DHT22;38507;53.132;6.394;2024-02-04T02:48:07;6.70;99.90
52209;DHT22;38507;53.132;6.394;2024-02-04T02:50:35;5.60;99.90
52209;DHT22;38507;53.132;6.394;2024-02-04T02:53:01;5.60;99.90
52209;DHT22;38507;53.132;6.394;2024-02-04T02:55:26;5.60;99.90
52209;DHT22;38507;53.132;6.394;2024-02-04T02:57:52;5.60;99.90
52209;DHT22;38507;53.132;6.394;2024-02-04T03:00:18;5.60;99.90
52209;DHT22;38507;53.132;6.394;2024-02-04T03:02:44;5.60;99.90
52209;DHT22;38507;53.132;6.394;2024-02-04T03:05:09;5.60;99.90
52209;DHT22;38507;53.132;6.394;2024-02-04T03:07:35;5.60;99.90
52209;DHT22;38507;53.132;6.394;2024-02-04T03:10:01;5.70;99.90
52209;DHT22;38507;53.132;6.394;2024-02-04T03:12:26;6.90;99.90
52209;DHT22;38507;53.132;6.394;2024-02-04T03:14:52;6.60;99.90
52209;DHT22;38507;53.132;6.394;2024-02-04T03:17:18;5.60;99.90
52209;DHT22;38507;53.132;6.394;2024-02-04T03:19:50;5.60;99.90
52209;DHT22;38507;53.132;6.394;2024-02-04T03:22:20;6.50;99.90
52209;DHT22;38507;53.132;6.394;2024-02-04T03:24:48;5.60;99.90
52209;DHT22;38507;53.132;6.394;2024-02-04T03:27:18;5.70;99.90
52209;DHT22;38507;53.132;6.394;2024-02-04T03:29:43;5.60;99.90
52209;DHT22;38507;53.132;6.394;2024-02-04T03:32:11;5.70;99.90
52209;DHT22;38507;53.132;6.394;2024-02-04T03:34:36;6.70;99.90
52209;DHT22;38507;53.132;6.394;2024-02-04T03:37:02;5.60;99.90
52209;DHT22;38507;53.132;6.394;2024-02-04T03:39:28;5.60;99.90
52209;DHT22;38507;53.132;6.394;2024-02-04T03:41:54;5.60;99.90
52209;DHT22;38507;53.132;6.394;2024-02-04T03:44:19;5.70;99.90
52209;DHT22;38507;53.132;6.394;2024-02-04T03:46:49;6.70;99.90
52209;DHT22;38507;53.132;6.394;2024-02-04T03:49:16;5.90;99.90
52209;DHT22;38507;53.132;6.394;2024-02-04T03:51:41;6.80;99.90
52209;DHT22;38507;53.132;6.394;2024-02-04T03:54:07;6.40;99.90
52209;DHT22;38507;53.132;6.394;2024-02-04T03:56:32;5.70;99.90
52209;DHT22;38507;53.132;6.394;2024-02-04T03:58:58;5.70;99.90
52209;DHT22;38507;53.132;6.394;2024-02-04T04:01:23;5.80;99.90
52209;DHT22;38507;53.132;6.394;2024-02-04T04:03:49;6.30;99.90
52209;DHT22;38507;53.132;6.394;2024-02-04T04:06:15;5.80;99.90
52209;DHT22;38507;53.132;6.394;2024-02-04T04:08:41;7.00;99.90
52209;DHT22;38507;53.132;6.394;2024-02-04T04:11:09;5.80;99.90
52209;DHT22;38507;53.132;6.394;2024-02-04T04:13:35;5.90;99.90
52209;DHT22;38507;53.132;6.394;2024-02-04T04:16:01;5.90;99.90
52209;DHT22;38507;53.132;6.394;2024-02-04T04:18:27;5.90;99.90
52209;DHT22;38507;53.132;6.394;2024-02-04T04:20:53;5.90;99.90
52209;DHT22;38507;53.132;6.394;2024-02-04T04:23:18;5.90;99.90
52209;DHT22;38507;53.132;6.394;2024-02-04T04:25:44;6.90;99.90
52209;DHT22;38507;53.132;6.394;2024-02-04T04:28:10;5.90;99.90
52209;DHT22;38507;53.132;6.394;2024-02-04T04:30:35;6.90;99.90
52209;DHT22;38507;53.132;6.394;2024-02-04T04:33:01;7.10;99.90
52209;DHT22;38507;53.132;6.394;2024-02-04T04:35:26;6.10;99.90
52209;DHT22;38507;53.132;6.394;2024-02-04T04:37:52;6.00;99.90
52209;DHT22;38507;53.132;6.394;2024-02-04T04:40:18;6.00;99.90
52209;DHT22;38507;53.132;6.394;2024-02-04T04:42:44;7.00;99.90
52209;DHT22;38507;53.132;6.394;2024-02-04T04:45:10;7.00;99.90
52209;DHT22;38507;53.132;6.394;2024-02-04T04:47:36;6.00;99.90
52209;DHT22;38507;53.132;6.394;2024-02-04T04:50:03;6.00;99.90
52209;DHT22;38507;53.132;6.394;2024-02-04T04:52:28;6.10;99.90
52209;DHT22;38507;53.132;6.394;2024-02-04T04:54:55;6.60;99.90
52209;DHT22;38507;53.132;6.394;2024-02-04T04:57:21;6.10;99.90
52209;DHT22;38507;53.132;6.394;2024-02-04T04:59:47;6.00;99.90
52209;DHT22;38507;53.132;6.394;2024-02-04T05:02:13;6.50;99.90
52209;DHT22;38507;53.132;6.394;2024-02-04T05:04:45;7.30;99.90
52209;DHT22;38507;53.132;6.394;2024-02-04T05:07:11;6.10;99.90
52209;DHT22;38507;53.132;6.394;2024-02-04T05:09:37;6.80;99.90
52209;DHT22;38507;53.132;6.394;2024-02-04T05:12:03;7.20;99.90
52209;DHT22;38507;53.132;6.394;2024-02-04T05:14:29;6.10;99.90
52209;DHT22;38507;53.132;6.394;2024-02-04T05:16:54;6.10;99.90
52209;DHT22;38507;53.132;6.394;2024-02-04T05:19:20;6.10;99.90
52209;DHT22;38507;53.132;6.394;2024-02-04T05:21:46;6.10;99.90
52209;DHT22;38507;53.132;6.394;2024-02-04T05:24:12;6.20;99.90
52209;DHT22;38507;53.132;6.394;2024-02-04T05:26:37;6.20;99.90
52209;DHT22;38507;53.132;6.394;2024-02-04T05:29:03;7.20;99.90
52209;DHT22;38507;53.132;6.394;2024-02-04T05:31:29;6.10;99.90
52209;DHT22;38507;53.132;6.394;2024-02-04T05:33:56;6.20;99.90
52209;DHT22;38507;53.132;6.394;2024-02-04T05:36:21;6.20;99.90
52209;DHT22;38507;53.132;6.394;2024-02-04T05:38:47;6.30;99.90
52209;DHT22;38507;53.132;6.394;2024-02-04T05:41:13;7.30;99.90
52209;DHT22;38507;53.132;6.394;2024-02-04T05:43:39;7.10;99.90
52209;DHT22;38507;53.132;6.394;2024-02-04T05:46:05;6.80;99.90
52209;DHT22;38507;53.132;6.394;2024-02-04T05:48:30;6.20;99.90
52209;DHT22;38507;53.132;6.394;2024-02-04T05:50:56;6.20;99.90
52209;DHT22;38507;53.132;6.394;2024-02-04T05:53:21;7.20;99.90
52209;DHT22;38507;53.132;6.394;2024-02-04T05:55:47;6.20;99.90
52209;DHT22;38507;53.132;6.394;2024-02-04T05:58:13;6.50;99.90
52209;DHT22;38507;53.132;6.394;2024-02-04T06:00:40;6.80;99.90
52209;DHT22;38507;53.132;6.394;2024-02-04T06:03:06;6.20;99.90
52209;DHT22;38507;53.132;6.394;2024-02-04T06:05:31;7.10;99.90
52209;DHT22;38507;53.132;6.394;2024-02-04T06:07:57;6.20;99.90
52209;DHT22;38507;53.132;6.394;2024-02-04T06:10:22;7.40;99.90
52209;DHT22;38507;53.132;6.394;2024-02-04T06:12:48;7.30;99.90
52209;DHT22;38507;53.132;6.394;2024-02-04T06:15:17;7.40;99.90
52209;DHT22;38507;53.132;6.394;2024-02-04T06:17:43;6.30;99.90
52209;DHT22;38507;53.132;6.394;2024-02-04T06:20:09;6.30;99.90
52209;DHT22;38507;53.132;6.394;2024-02-04T06:22:35;6.30;99.90
52209;DHT22;38507;53.132;6.394;2024-02-04T06:25:01;6.40;99.90
52209;DHT22;38507;53.132;6.394;2024-02-04T06:27:27;6.30;99.90
52209;DHT22;38507;53.132;6.394;2024-02-04T06:29:52;7.40;99.90
52209;DHT22;38507;53.132;6.394;2024-02-04T06:32:18;7.50;99.90
52209;DHT22;38507;53.132;6.394;2024-02-04T06:34:47;7.50;99.90
52209;DHT22;38507;53.132;6.394;2024-02-04T06:37:12;7.40;99.90
52209;DHT22;38507;53.132;6.394;2024-02-04T06:39:38;7.50;99.90
52209;DHT22;38507;53.132;6.394;2024-02-04T06:42:04;6.80;99.90
52209;DHT22;38507;53.132;6.394;2024-02-04T06:44:30;7.10;99.90
52209;DHT22;38507;53.132;6.394;2024-02-04T06:46:56;6.40;99.90
52209;DHT22;38507;53.132;6.394;2024-02-04T06:49:21;7.40;99.90
52209;DHT22;38507;53.132;6.394;2024-02-04T06:51:47;7.60;99.90
52209;DHT22;38507;53.132;6.394;2024-02-04T06:54:13;6.50;99.90
52209;DHT22;38507;53.132;6.394;2024-02-04T06:56:39;6.50;99.90
52209;DHT22;38507;53.132;6.394;2024-02-04T06:59:05;6.50;99.90
52209;DHT22;38507;53.132;6.394;2024-02-04T07:01:32;7.20;99.90
52209;DHT22;38507;53.132;6.394;2024-02-04T07:03:57;6.60;99.90
52209;DHT22;38507;53.132;6.394;2024-02-04T07:06:23;6.60;99.90
52209;DHT22;38507;53.132;6.394;2024-02-04T07:08:49;6.60;99.90
52209;DHT22;38507;53.132;6.394;2024-02-04T07:11:14;6.60;99.90
52209;DHT22;38507;53.132;6.394;2024-02-04T07:13:41;6.60;99.90
52209;DHT22;38507;53.132;6.394;2024-02-04T07:16:06;7.80;99.90
52209;DHT22;38507;53.132;6.394;2024-02-04T07:18:32;6.70;99.90
52209;DHT22;38507;53.132;6.394;2024-02-04T07:20:58;6.70;99.90
52209;DHT22;38507;53.132;6.394;2024-02-04T07:23:23;6.60;99.90
52209;DHT22;38507;53.132;6.394;2024-02-04T07:25:49;7.30;99.90
52209;DHT22;38507;53.132;6.394;2024-02-04T07:28:15;6.70;99.90
52209;DHT22;38507;53.132;6.394;2024-02-04T07:30:40;7.80;99.90
52209;DHT22;38507;53.132;6.394;2024-02-04T07:33:06;6.70;99.90
52209;DHT22;38507;53.132;6.394;2024-02-04T07:35:32;7.60;99.90
52209;DHT22;38507;53.132;6.394;2024-02-04T07:37:57;6.80;99.90
52209;DHT22;38507;53.132;6.394;2024-02-04T07:40:23;6.80;99.90
52209;DHT22;38507;53.132;6.394;2024-02-04T07:42:49;7.30;99.90
52209;DHT22;38507;53.132;6.394;2024-02-04T07:45:14;6.80;99.90
52209;DHT22;38507;53.132;6.394;2024-02-04T07:47:40;6.80;99.90
52209;DHT22;38507;53.132;6.394;2024-02-04T07:50:06;6.80;99.90
52209;DHT22;38507;53.132;6.394;2024-02-04T07:52:32;6.90;99.90
52209;DHT22;38507;53.132;6.394;2024-02-04T07:54:58;8.00;99.90
52209;DHT22;38507;53.132;6.394;2024-02-04T07:57:24;7.70;99.90
52209;DHT22;38507;53.132;6.394;2024-02-04T07:59:50;7.30;99.90
52209;DHT22;38507;53.132;6.394;2024-02-04T08:02:15;8.00;99.90
52209;DHT22;38507;53.132;6.394;2024-02-04T08:04:41;6.80;99.90
52209;DHT22;38507;53.132;6.394;2024-02-04T08:07:07;7.00;99.90
52209;DHT22;38507;53.132;6.394;2024-02-04T08:09:32;8.20;99.90
52209;DHT22;38507;53.132;6.394;2024-02-04T08:11:58;7.00;99.90
52209;DHT22;38507;53.132;6.394;2024-02-04T08:14:24;7.00;99.90
52209;DHT22;38507;53.132;6.394;2024-02-04T08:16:49;7.40;99.90
52209;DHT22;38507;53.132;6.394;2024-02-04T08:19:16;7.00;99.90
52209;DHT22;38507;53.132;6.394;2024-02-04T08:21:42;8.00;99.90
52209;DHT22;38507;53.132;6.394;2024-02-04T08:24:08;7.50;99.90
52209;DHT22;38507;53.132;6.394;2024-02-04T08:26:34;8.10;99.90
52209;DHT22;38507;53.132;6.394;2024-02-04T08:29:00;7.10;99.90
52209;DHT22;38507;53.132;6.394;2024-02-04T08:31:25;7.10;99.90
52209;DHT22;38507;53.132;6.394;2024-02-04T08:33:51;8.20;99.90
52209;DHT22;38507;53.132;6.394;2024-02-04T08:36:18;7.20;99.90
52209;DHT22;38507;53.132;6.394;2024-02-04T08:38:44;7.30;99.90
52209;DHT22;38507;53.132;6.394;2024-02-04T08:41:10;8.10;99.90
52209;DHT22;38507;53.132;6.394;2024-02-04T08:43:36;7.40;99.90
52209;DHT22;38507;53.132;6.394;2024-02-04T08:46:01;8.40;99.90
52209;DHT22;38507;53.132;6.394;2024-02-04T08:48:28;8.00;99.90
52209;DHT22;38507;53.132;6.394;2024-02-04T08:50:53;7.70;99.90
52209;DHT22;38507;53.132;6.394;2024-02-04T08:53:22;8.40;99.90
52209;DHT22;38507;53.132;6.394;2024-02-04T08:55:49;8.10;99.90
52209;DHT22;38507;53.132;6.394;2024-02-04T08:58:14;8.20;99.90
52209;DHT22;38507;53.132;6.394;2024-02-04T09:00:40;7.50;99.90
52209;DHT22;38507;53.132;6.394;2024-02-04T09:03:06;7.50;99.90
52209;DHT22;38507;53.132;6.394;2024-02-04T09:05:32;8.60;99.90
52209;DHT22;38507;53.132;6.394;2024-02-04T09:07:57;8.60;99.90
52209;DHT22;38507;53.132;6.394;2024-02-04T09:10:23;8.70;99.90
52209;DHT22;38507;53.132;6.394;2024-02-04T09:12:50;7.60;99.90
52209;DHT22;38507;53.132;6.394;2024-02-04T09:15:15;8.60;99.90
52209;DHT22;38507;53.132;6.394;2024-02-04T09:17:41;7.60;99.90
52209;DHT22;38507;53.132;6.394;2024-02-04T09:20:07;8.20;99.90
52209;DHT22;38507;53.132;6.394;2024-02-04T09:22:33;7.70;99.90
52209;DHT22;38507;53.132;6.394;2024-02-04T09:24:59;8.70;99.90
52209;DHT22;38507;53.132;6.394;2024-02-04T09:27:24;8.70;99.90
52209;DHT22;38507;53.132;6.394;2024-02-04T09:29:51;8.80;99.90
52209;DHT22;38507;53.132;6.394;2024-02-04T09:32:17;8.30;99.90
52209;DHT22;38507;53.132;6.394;2024-02-04T09:34:43;7.60;99.90
52209;DHT22;38507;53.132;6.394;2024-02-04T09:37:09;7.80;99.90
52209;DHT22;38507;53.132;6.394;2024-02-04T09:39:34;9.00;99.90
52209;DHT22;38507;53.132;6.394;2024-02-04T09:42:00;8.60;99.90
52209;DHT22;38507;53.132;6.394;2024-02-04T09:44:26;7.90;99.90
52209;DHT22;38507;53.132;6.394;2024-02-04T09:46:53;7.90;99.90
52209;DHT22;38507;53.132;6.394;2024-02-04T09:49:19;8.90;99.90
52209;DHT22;38507;53.132;6.394;2024-02-04T09:51:46;8.80;99.90
52209;DHT22;38507;53.132;6.394;2024-02-04T09:54:14;8.00;99.90
52209;DHT22;38507;53.132;6.394;2024-02-04T09:56:44;9.10;99.90
52209;DHT22;38507;53.132;6.394;2024-02-04T09:59:11;8.20;99.90
52209;DHT22;38507;53.132;6.394;2024-02-04T10:01:36;8.60;99.90
52209;DHT22;38507;53.132;6.394;2024-02-04T10:04:05;8.30;99.90
52209;DHT22;38507;53.132;6.394;2024-02-04T10:06:31;9.30;99.90
52209;DHT22;38507;53.132;6.394;2024-02-04T10:08:56;8.70;99.90
52209;DHT22;38507;53.132;6.394;2024-02-04T10:11:22;8.30;99.90
52209;DHT22;38507;53.132;6.394;2024-02-04T10:13:49;9.30;99.90
52209;DHT22;38507;53.132;6.394;2024-02-04T10:16:15;8.40;99.90
52209;DHT22;38507;53.132;6.394;2024-02-04T10:18:46;8.80;99.90
52209;DHT22;38507;53.132;6.394;2024-02-04T10:21:18;8.40;99.90
52209;DHT22;38507;53.132;6.394;2024-02-04T10:23:48;8.40;99.90
52209;DHT22;38507;53.132;6.394;2024-02-04T10:26:15;8.70;99.90
52209;DHT22;38507;53.132;6.394;2024-02-04T10:28:41;8.40;99.90
52209;DHT22;38507;53.132;6.394;2024-02-04T10:31:10;8.50;99.90
52209;DHT22;38507;53.132;6.394;2024-02-04T10:33:36;9.40;99.90
52209;DHT22;38507;53.132;6.394;2024-02-04T10:36:03;8.50;99.90
52209;DHT22;38507;53.132;6.394;2024-02-04T10:38:30;8.60;99.90
52209;DHT22;38507;53.132;6.394;2024-02-04T10:40:59;8.50;99.90
52209;DHT22;38507;53.132;6.394;2024-02-04T10:43:29;9.10;99.90
52209;DHT22;38507;53.132;6.394;2024-02-04T10:45:56;9.40;99.90
52209;DHT22;38507;53.132;6.394;2024-02-04T10:48:29;9.70;99.90
52209;DHT22;38507;53.132;6.394;2024-02-04T10:51:04;9.30;99.90
52209;DHT22;38507;53.132;6.394;2024-02-04T10:53:30;8.80;99.90
52209;DHT22;38507;53.132;6.394;2024-02-04T10:55:58;9.90;99.90
52209;DHT22;38507;53.132;6.394;2024-02-04T10:58:27;9.80;99.90
52209;DHT22;38507;53.132;6.394;2024-02-04T11:00:53;9.60;99.90
52209;DHT22;38507;53.132;6.394;2024-02-04T11:03:18;9.70;99.90
52209;DHT22;38507;53.132;6.394;2024-02-04T11:05:44;9.60;99.90
52209;DHT22;38507;53.132;6.394;2024-02-04T11:08:12;8.70;99.90
52209;DHT22;38507;53.132;6.394;2024-02-04T11:10:39;9.50;99.90
52209;DHT22;38507;53.132;6.394;2024-02-04T11:13:06;8.70;99.90
52209;DHT22;38507;53.132;6.394;2024-02-04T11:15:37;9.40;99.90
52209;DHT22;38507;53.132;6.394;2024-02-04T11:21:34;8.70;99.90
52209;DHT22;38507;53.132;6.394;2024-02-04T11:24:26;8.70;99.90
52209;DHT22;38507;53.132;6.394;2024-02-04T11:26:55;9.80;99.90
52209;DHT22;38507;53.132;6.394;2024-02-04T11:29:21;9.20;99.90
52209;DHT22;38507;53.132;6.394;2024-02-04T11:31:47;8.80;99.90
52209;DHT22;38507;53.132;6.394;2024-02-04T11:34:13;8.70;99.90
52209;DHT22;38507;53.132;6.394;2024-02-04T11:36:39;9.40;99.90
52209;DHT22;38507;53.132;6.394;2024-02-04T11:39:12;8.70;99.90
52209;DHT22;38507;53.132;6.394;2024-02-04T11:41:46;9.10;99.90
52209;DHT22;38507;53.132;6.394;2024-02-04T11:44:12;8.80;99.90
52209;DHT22;38507;53.132;6.394;2024-02-04T11:46:38;9.60;99.90
52209;DHT22;38507;53.132;6.394;2024-02-04T11:49:13;9.30;99.90
52209;DHT22;38507;53.132;6.394;2024-02-04T11:51:39;8.80;99.90
52209;DHT22;38507;53.132;6.394;2024-02-04T11:54:07;9.70;99.90
52209;DHT22;38507;53.132;6.394;2024-02-04T11:56:32;9.70;99.90
52209;DHT22;38507;53.132;6.394;2024-02-04T11:58:59;9.70;99.90
52209;DHT22;38507;53.132;6.394;2024-02-04T12:01:25;9.00;99.90
52209;DHT22;38507;53.132;6.394;2024-02-04T12:03:51;9.60;99.90
52209;DHT22;38507;53.132;6.394;2024-02-04T12:06:17;9.20;99.90
52209;DHT22;38507;53.132;6.394;2024-02-04T12:08:44;9.00;99.90
52209;DHT22;38507;53.132;6.394;2024-02-04T12:11:10;9.50;99.90
52209;DHT22;38507;53.132;6.394;2024-02-04T12:13:37;10.00;99.90
52209;DHT22;38507;53.132;6.394;2024-02-04T12:16:06;9.00;99.90
52209;DHT22;38507;53.132;6.394;2024-02-04T12:18:34;9.00;99.90
52209;DHT22;38507;53.132;6.394;2024-02-04T12:20:59;9.30;99.90
52209;DHT22;38507;53.132;6.394;2024-02-04T12:23:25;9.90;99.90
52209;DHT22;38507;53.132;6.394;2024-02-04T12:25:52;9.00;99.90
52209;DHT22;38507;53.132;6.394;2024-02-04T12:28:17;10.00;99.90
52209;DHT22;38507;53.132;6.394;2024-02-04T12:30:54;9.00;99.90
52209;DHT22;38507;53.132;6.394;2024-02-04T12:33:20;9.00;99.90
52209;DHT22;38507;53.132;6.394;2024-02-04T12:35:50;8.90;99.90
52209;DHT22;38507;53.132;6.394;2024-02-04T12:38:16;9.50;99.90
52209;DHT22;38507;53.132;6.394;2024-02-04T12:40:43;9.00;99.90
52209;DHT22;38507;53.132;6.394;2024-02-04T12:43:13;9.00;99.90
52209;DHT22;38507;53.132;6.394;2024-02-04T12:45:39;8.90;99.90
52209;DHT22;38507;53.132;6.394;2024-02-04T12:48:05;9.00;99.90
52209;DHT22;38507;53.132;6.394;2024-02-04T12:50:30;9.00;99.90
52209;DHT22;38507;53.132;6.394;2024-02-04T12:53:09;9.10;99.90
52209;DHT22;38507;53.132;6.394;2024-02-04T12:55:37;9.00;99.90
52209;DHT22;38507;53.132;6.394;2024-02-04T12:58:08;9.00;99.90
52209;DHT22;38507;53.132;6.394;2024-02-04T13:00:35;9.80;99.90
52209;DHT22;38507;53.132;6.394;2024-02-04T13:03:06;9.60;99.90
52209;DHT22;38507;53.132;6.394;2024-02-04T13:05:33;8.90;99.90
52209;DHT22;38507;53.132;6.394;2024-02-04T13:08:00;8.90;99.90
52209;DHT22;38507;53.132;6.394;2024-02-04T13:10:34;9.30;99.90
52209;DHT22;38507;53.132;6.394;2024-02-04T13:13:05;10.00;99.90
52209;DHT22;38507;53.132;6.394;2024-02-04T13:15:39;9.80;99.90
52209;DHT22;38507;53.132;6.394;2024-02-04T13:18:05;8.90;99.90
52209;DHT22;38507;53.132;6.394;2024-02-04T13:20:31;8.80;99.90
52209;DHT22;38507;53.132;6.394;2024-02-04T13:22:57;9.40;99.90
52209;DHT22;38507;53.132;6.394;2024-02-04T13:25:25;9.60;99.90
52209;DHT22;38507;53.132;6.394;2024-02-04T13:27:52;9.00;99.90
52209;DHT22;38507;53.132;6.394;2024-02-04T13:30:18;8.80;99.90
52209;DHT22;38507;53.132;6.394;2024-02-04T13:32:46;8.80;99.90
52209;DHT22;38507;53.132;6.394;2024-02-04T13:35:12;8.80;99.90
52209;DHT22;38507;53.132;6.394;2024-02-04T13:37:39;8.90;99.90
52209;DHT22;38507;53.132;6.394;2024-02-04T13:40:06;9.60;99.90
52209;DHT22;38507;53.132;6.394;2024-02-04T13:42:34;8.70;99.90
52209;DHT22;38507;53.132;6.394;2024-02-04T13:45:00;9.10;99.90
52209;DHT22;38507;53.132;6.394;2024-02-04T13:47:27;9.00;99.90
52209;DHT22;38507;53.132;6.394;2024-02-04T13:49:53;9.30;99.90
52209;DHT22;38507;53.132;6.394;2024-02-04T13:52:19;9.60;99.90
52209;DHT22;38507;53.132;6.394;2024-02-04T13:54:46;8.80;99.90
52209;DHT22;38507;53.132;6.394;2024-02-04T13:57:12;9.60;99.90
52209;DHT22;38507;53.132;6.394;2024-02-04T13:59:37;8.50;99.90
52209;DHT22;38507;53.132;6.394;2024-02-04T14:02:03;8.50;99.90
52209;DHT22;38507;53.132;6.394;2024-02-04T14:04:30;8.50;99.90
52209;DHT22;38507;53.132;6.394;2024-02-04T14:06:57;9.00;99.90
52209;DHT22;38507;53.132;6.394;2024-02-04T14:09:22;8.40;99.90
52209;DHT22;38507;53.132;6.394;2024-02-04T14:11:48;8.70;99.90
52209;DHT22;38507;53.132;6.394;2024-02-04T14:14:14;8.50;99.90
52209;DHT22;38507;53.132;6.394;2024-02-04T14:16:39;9.50;99.90
52209;DHT22;38507;53.132;6.394;2024-02-04T14:19:05;9.40;99.90
52209;DHT22;38507;53.132;6.394;2024-02-04T14:21:31;8.50;99.90
52209;DHT22;38507;53.132;6.394;2024-02-04T14:23:56;9.20;99.90
52209;DHT22;38507;53.132;6.394;2024-02-04T14:26:22;8.50;99.90
52209;DHT22;38507;53.132;6.394;2024-02-04T14:28:48;9.40;99.90
52209;DHT22;38507;53.132;6.394;2024-02-04T14:31:14;9.50;99.90
52209;DHT22;38507;53.132;6.394;2024-02-04T14:33:40;8.50;99.90
52209;DHT22;38507;53.132;6.394;2024-02-04T14:36:07;9.10;99.90
52209;DHT22;38507;53.132;6.394;2024-02-04T14:38:33;8.50;99.90
52209;DHT22;38507;53.132;6.394;2024-02-04T14:40:59;8.50;99.90
52209;DHT22;38507;53.132;6.394;2024-02-04T14:43:25;9.20;99.90
52209;DHT22;38507;53.132;6.394;2024-02-04T14:45:51;8.50;99.90
52209;DHT22;38507;53.132;6.394;2024-02-04T14:48:17;8.50;99.90
52209;DHT22;38507;53.132;6.394;2024-02-04T14:50:43;8.60;99.90
52209;DHT22;38507;53.132;6.394;2024-02-04T14:53:09;9.60;99.90
52209;DHT22;38507;53.132;6.394;2024-02-04T14:55:34;9.10;99.90
52209;DHT22;38507;53.132;6.394;2024-02-04T14:58:00;9.30;99.90
52209;DHT22;38507;53.132;6.394;2024-02-04T15:00:26;9.20;99.90
52209;DHT22;38507;53.132;6.394;2024-02-04T15:02:56;8.60;99.90
52209;DHT22;38507;53.132;6.394;2024-02-04T15:05:22;9.50;99.90
52209;DHT22;38507;53.132;6.394;2024-02-04T15:07:48;8.70;99.90
52209;DHT22;38507;53.132;6.394;2024-02-04T15:10:14;8.80;99.90
52209;DHT22;38507;53.132;6.394;2024-02-04T15:12:40;8.70;99.90
52209;DHT22;38507;53.132;6.394;2024-02-04T15:15:06;8.60;99.90
52209;DHT22;38507;53.132;6.394;2024-02-04T15:17:33;8.70;99.90
52209;DHT22;38507;53.132;6.394;2024-02-04T15:19:59;8.70;99.90
52209;DHT22;38507;53.132;6.394;2024-02-04T15:22:25;8.70;99.90
52209;DHT22;38507;53.132;6.394;2024-02-04T15:24:51;8.70;99.90
52209;DHT22;38507;53.132;6.394;2024-02-04T15:27:18;8.70;99.90
52209;DHT22;38507;53.132;6.394;2024-02-04T15:29:47;8.70;99.90
52209;DHT22;38507;53.132;6.394;2024-02-04T15:32:16;8.80;99.90
52209;DHT22;38507;53.132;6.394;2024-02-04T15:34:42;8.80;99.90
52209;DHT22;38507;53.132;6.394;2024-02-04T15:37:08;8.90;99.90
52209;DHT22;38507;53.132;6.394;2024-02-04T15:39:35;9.80;99.90
52209;DHT22;38507;53.132;6.394;2024-02-04T15:42:03;9.90;99.90
52209;DHT22;38507;53.132;6.394;2024-02-04T15:44:30;8.90;99.90
52209;DHT22;38507;53.132;6.394;2024-02-04T15:46:56;9.80;99.90
52209;DHT22;38507;53.132;6.394;2024-02-04T15:49:24;9.00;99.90